Abbotsford Airport
CYXX : rendu visible

Aérodrome :











RETROUVEZ-NOUS SUR...

 
LOGIN :

S'inscrire | Disclaimer

   EN    FR    IT 

 









Légende :    VFR   VFR Marginal   IFR   IFR Intensif   IFR Très Intensif
Visi : 
Plafond : 
>= 8 km
>= 3000ft
5 à 8 km
1000 à 3000 ft
1500m à 5 km
500 à 1000 ft
800 à 1500m
200 à 500 ft
< 800m
< 200 ft
Symboles :   Orages  Brouillard  Fortes neiges  Fortes précipitations  Vent > 20 kt







- Altitude de l'aérodrome : 195 ft
- Code IATA : YXX


CYXX - Abbotsford

DERNIER METAR :
  • 170400Z 03003KT 10SM SCT040 BKN090 13/12 A2982 RMK CU3AC3 SLP099 DENSITY ALT 200FT

METARs EXPIRÉS :
  • 170300Z 34002KT 10SM FEW040 BKN090 13/13 A2981 RMK SC2AC3 SLP098 DENSITY ALT 200FT
  • 170200Z 02003KT 25SM FEW029 FEW062 FEW100 14/12 A2981 RMK CU1SC1AC1 CU TR SLP098 DENSITY ALT 300FT

TAF TAF CYXX
Valide du 17 à 00h jusqu'au 18 à 00h UTC


162344Z 1700/1724 VRB03KT P6SM SCT020 BKN080
TEMPO 1700/1706 5SM -SHRA BR BKN020
FM170600 03005KT P6SM SCT015 OVC040
TEMPO 1706/1715 BKN015 OVC030
FM171500 04010KT P6SM -RA SCT015 OVC030
TEMPO 1715/1724 4SM -RA BR OVC015 RMK NXT FCST BY 170600Z
Pas de NOTAMs connus pour ce terrain.



MET'MAP, la Météo Aéronautique d'un coup d'oeil ! - Copyright ORBIFLY Décembre 2007 - Disclaimer

ORBIFLY MET'MAP TEAM :

Programmation & Développement : Alexandra Zaïnal
Conception & Développement : Baudouin d'Aumeries
Co-Programmation & Développement : Marc-Olivier Méhu
Soutien technique & logistique : Manuel Goepfert

Contact : metmap@orbifly.com




SOURCES & CREDITS :

   NOAA       Earth
Advisory